createdAt,value
2022-08-24T00:01:27.836Z,10.98
2022-08-24T00:03:59.922Z,11.38
2022-08-24T00:06:28.685Z,9.85
2022-08-24T00:08:57.831Z,11.30
2022-08-24T00:11:26.787Z,11.90
2022-08-24T00:13:54.406Z,11.00
2022-08-24T00:16:22.355Z,12.10
2022-08-24T00:18:50.055Z,12.82
2022-08-24T00:21:19.013Z,13.65
2022-08-24T00:23:49.579Z,13.18
2022-08-24T00:26:19.616Z,12.00
2022-08-24T00:28:57.825Z,14.23
2022-08-24T00:31:26.017Z,13.18
2022-08-24T00:33:54.460Z,12.98
2022-08-24T00:36:23.076Z,12.90
2022-08-24T00:38:50.970Z,13.25
2022-08-24T00:41:18.890Z,12.90
2022-08-24T00:43:58.733Z,12.23
2022-08-24T00:46:42.341Z,13.18
2022-08-24T00:49:25.841Z,12.37
2022-08-24T00:52:21.435Z,12.98
2022-08-24T00:55:06.285Z,13.48
2022-08-24T00:57:35.851Z,13.60
2022-08-24T01:00:18.135Z,12.02
2022-08-24T01:02:49.022Z,12.00
2022-08-24T01:05:17.927Z,14.38
2022-08-24T01:07:48.635Z,14.25
2022-08-24T01:10:25.201Z,14.38
2022-08-24T01:13:01.003Z,13.82
2022-08-24T01:15:30.597Z,14.32
2022-08-24T01:18:17.804Z,13.93
2022-08-24T01:20:46.730Z,13.02
2022-08-24T01:23:27.792Z,14.25
2022-08-24T01:26:05.190Z,14.60
2022-08-24T01:28:34.124Z,14.68
2022-08-24T01:31:04.745Z,14.05
2022-08-24T01:33:33.134Z,16.50
2022-08-24T01:36:28.540Z,15.57
2022-08-24T01:41:28.910Z,15.27
2022-08-24T01:43:57.952Z,18.00
2022-08-24T01:46:26.766Z,15.52
2022-08-24T01:48:54.326Z,15.75
2022-08-24T01:51:21.825Z,15.75
2022-08-24T01:53:49.630Z,15.00
2022-08-24T01:56:17.300Z,15.52
2022-08-24T01:58:46.306Z,14.50
2022-08-24T02:01:15.600Z,15.48
2022-08-24T02:03:43.930Z,14.43
2022-08-24T02:06:12.233Z,14.70
2022-08-24T02:08:39.764Z,15.02
2022-08-24T02:11:08.971Z,14.80
2022-08-24T02:13:38.011Z,14.50
2022-08-24T02:16:06.673Z,15.07
2022-08-24T02:18:37.490Z,16.37
2022-08-24T02:21:08.789Z,15.75
2022-08-24T02:23:37.484Z,17.55
2022-08-24T02:26:07.079Z,16.27
2022-08-24T02:28:35.824Z,17.73
2022-08-24T02:31:06.051Z,16.20
2022-08-24T02:33:39.087Z,18.00
2022-08-24T02:36:25.418Z,17.58
2022-08-24T02:38:55.788Z,16.23
2022-08-24T02:41:24.778Z,18.15
2022-08-24T02:43:53.810Z,17.77
2022-08-24T02:46:25.425Z,18.58
2022-08-24T02:49:10.431Z,18.30
2022-08-24T02:51:44.835Z,21.42
2022-08-24T02:54:17.593Z,20.20
2022-08-24T02:56:46.440Z,20.95
2022-08-24T02:59:15.460Z,21.30
2022-08-24T03:01:43.866Z,22.05
2022-08-24T03:04:13.215Z,22.08
2022-08-24T03:06:41.117Z,23.00
2022-08-24T03:09:09.095Z,22.25
2022-08-24T03:11:37.147Z,22.13
2022-08-24T03:14:04.773Z,22.95
2022-08-24T03:16:33.548Z,23.75
2022-08-24T03:19:01.556Z,22.55
2022-08-24T03:21:30.826Z,22.45
2022-08-24T03:23:58.439Z,23.27
2022-08-24T03:26:26.177Z,22.15
2022-08-24T03:28:54.212Z,21.40
2022-08-24T03:31:21.906Z,20.23
2022-08-24T03:33:50.058Z,21.77
2022-08-24T03:36:17.840Z,19.80
2022-08-24T03:38:45.333Z,20.37
2022-08-24T03:41:13.401Z,19.20
2022-08-24T03:43:47.166Z,19.35
2022-08-24T03:46:29.296Z,19.15
2022-08-24T03:48:58.287Z,16.60
2022-08-24T03:51:28.494Z,17.92
2022-08-24T03:53:57.358Z,17.80
2022-08-24T03:56:25.924Z,17.73
2022-08-24T03:58:55.076Z,16.27
2022-08-24T04:01:23.280Z,15.93
2022-08-24T04:03:53.475Z,16.52
2022-08-24T04:06:22.128Z,16.55
2022-08-24T04:08:50.178Z,16.65
2022-08-24T04:11:20.558Z,16.92
2022-08-24T04:13:48.262Z,16.55
2022-08-24T04:16:19.059Z,17.12
2022-08-24T04:18:47.734Z,17.37
2022-08-24T04:21:35.537Z,16.80
2022-08-24T04:24:07.189Z,17.62
2022-08-24T04:26:45.472Z,16.02
2022-08-24T04:29:15.814Z,15.52
2022-08-24T04:31:44.340Z,15.95
2022-08-24T04:34:13.780Z,16.87
2022-08-24T04:36:43.689Z,17.23
2022-08-24T04:39:11.654Z,16.95
2022-08-24T04:41:42.749Z,17.42
2022-08-24T04:44:10.735Z,15.93
2022-08-24T04:46:39.265Z,15.90
2022-08-24T04:49:08.597Z,17.42
2022-08-24T04:51:36.990Z,16.23
2022-08-24T04:54:05.519Z,17.67
2022-08-24T04:56:32.985Z,16.27
2022-08-24T04:59:01.127Z,16.55
2022-08-24T05:01:29.750Z,15.95
2022-08-24T05:03:57.333Z,16.00
2022-08-24T05:06:29.044Z,16.35
2022-08-24T05:08:57.948Z,18.52
2022-08-24T05:11:26.997Z,19.30
2022-08-24T05:13:56.311Z,18.48
2022-08-24T05:16:24.833Z,18.20
2022-08-24T05:18:54.686Z,17.17
2022-08-24T05:21:23.781Z,17.55
2022-08-24T05:23:51.868Z,16.35
2022-08-24T05:26:25.472Z,17.15
2022-08-24T05:28:58.047Z,18.37
2022-08-24T05:31:28.385Z,18.25
2022-08-24T05:33:56.607Z,18.20
2022-08-24T05:36:30.284Z,17.23
2022-08-24T05:39:00.833Z,18.45
2022-08-24T05:41:29.022Z,18.08
2022-08-24T05:43:57.658Z,16.98
2022-08-24T05:46:26.261Z,16.83
2022-08-24T05:48:54.934Z,16.08
2022-08-24T05:51:22.645Z,17.00
2022-08-24T05:53:51.454Z,16.20
2022-08-24T05:56:20.119Z,15.63
2022-08-24T05:58:48.253Z,16.00
2022-08-24T06:01:21.230Z,15.32
2022-08-24T06:03:50.870Z,16.10
2022-08-24T06:06:20.118Z,16.65
2022-08-24T06:08:50.584Z,14.48
2022-08-24T06:11:30.146Z,13.95
2022-08-24T06:14:01.687Z,13.73
2022-08-24T06:16:30.705Z,14.25
2022-08-24T06:18:58.262Z,14.77
2022-08-24T06:21:28.172Z,12.75
2022-08-24T06:23:58.055Z,12.55
2022-08-24T06:26:45.143Z,11.75
2022-08-24T06:29:19.404Z,12.07
2022-08-24T06:31:54.223Z,12.27
2022-08-24T06:34:24.493Z,11.73
2022-08-24T06:36:53.809Z,11.57
2022-08-24T06:39:21.826Z,11.68
2022-08-24T06:41:50.636Z,11.35
2022-08-24T06:44:18.870Z,11.25
2022-08-24T06:46:47.330Z,12.23
2022-08-24T06:49:15.095Z,10.57
2022-08-24T06:51:42.501Z,10.75
2022-08-24T06:54:10.563Z,10.90
2022-08-24T06:56:38.668Z,10.07
2022-08-24T06:59:06.585Z,10.52
2022-08-24T07:01:35.105Z,10.68
2022-08-24T07:04:03.149Z,10.35
2022-08-24T07:06:35.011Z,10.13
2022-08-24T07:09:02.784Z,10.43
2022-08-24T07:11:32.779Z,10.07
2022-08-24T07:14:00.867Z,10.38
2022-08-24T07:16:28.744Z,10.52
2022-08-24T07:18:57.052Z,11.02
2022-08-24T07:21:25.323Z,10.73
2022-08-24T07:23:56.408Z,11.10
2022-08-24T07:26:25.700Z,10.88
2022-08-24T07:28:56.357Z,9.60
2022-08-24T07:31:24.089Z,10.45
2022-08-24T07:33:51.951Z,10.10
2022-08-24T07:36:22.754Z,8.68
2022-08-24T07:38:54.753Z,8.52
2022-08-24T07:41:56.664Z,8.57
2022-08-24T07:44:15.638Z,6.78
2022-08-24T07:46:44.110Z,6.78
2022-08-24T07:49:29.232Z,6.22
2022-08-24T07:51:59.375Z,5.12
2022-08-24T07:54:28.894Z,5.50
2022-08-24T07:56:56.573Z,4.90
2022-08-24T07:59:24.344Z,4.53
2022-08-24T08:01:53.021Z,4.68
2022-08-24T08:04:28.048Z,3.60
2022-08-24T08:09:31.311Z,4.00
2022-08-24T08:11:59.582Z,3.60
2022-08-24T08:14:27.539Z,3.40
2022-08-24T08:16:56.213Z,3.65
2022-08-24T08:19:23.840Z,3.75
2022-08-24T08:22:12.219Z,4.80
2022-08-24T08:24:44.985Z,6.15
2022-08-24T08:27:16.392Z,4.03
2022-08-24T08:29:44.231Z,2.92
2022-08-24T08:32:14.867Z,3.85
2022-08-24T08:34:43.893Z,3.22
2022-08-24T08:37:13.053Z,4.45
2022-08-24T08:39:41.153Z,3.97
2022-08-24T08:42:24.270Z,3.90
2022-08-24T08:44:52.468Z,3.58
2022-08-24T08:47:57.899Z,4.25
2022-08-24T08:50:45.526Z,4.30
2022-08-24T08:53:37.057Z,4.03
2022-08-24T08:56:26.175Z,3.92
2022-08-24T08:59:13.098Z,4.18
2022-08-24T09:01:53.561Z,4.10
2022-08-24T09:04:31.842Z,4.00
2022-08-24T09:07:19.765Z,3.65
2022-08-24T09:10:16.847Z,4.00
2022-08-24T09:12:57.107Z,3.70
2022-08-24T09:15:43.882Z,3.83
2022-08-24T09:18:46.084Z,3.47
2022-08-24T09:21:55.098Z,3.78
2022-08-24T09:24:31.097Z,3.70
2022-08-24T09:27:06.112Z,3.10
2022-08-24T09:29:57.634Z,3.37
2022-08-24T09:32:46.983Z,3.78
2022-08-24T09:35:42.934Z,3.87
2022-08-24T09:38:48.345Z,4.10
2022-08-24T09:41:41.746Z,4.20
2022-08-24T09:44:40.583Z,3.37
2022-08-24T09:47:17.500Z,4.55
2022-08-24T09:49:56.689Z,4.53
2022-08-24T09:52:36.567Z,3.45
2022-08-24T09:55:25.195Z,3.60
2022-08-24T09:58:00.961Z,4.32
2022-08-24T10:00:39.506Z,3.85
2022-08-24T10:03:34.997Z,2.55
2022-08-24T10:06:10.573Z,4.75
2022-08-24T10:08:55.509Z,3.78
2022-08-24T10:14:31.481Z,2.80
2022-08-24T10:17:34.035Z,3.50
2022-08-24T10:21:15.227Z,4.00
2022-08-24T10:23:49.361Z,4.75
2022-08-24T10:26:20.819Z,4.35
2022-08-24T10:29:11.764Z,4.57
2022-08-24T10:31:56.012Z,3.90
2022-08-24T10:34:51.405Z,3.75
2022-08-24T10:37:31.032Z,4.10
2022-08-24T10:40:13.147Z,4.18
2022-08-24T10:43:09.164Z,3.95
2022-08-24T10:46:02.231Z,4.07
2022-08-24T10:48:30.074Z,4.78
2022-08-24T10:51:38.052Z,4.57
2022-08-24T10:54:06.541Z,4.47
2022-08-24T10:56:43.980Z,4.40
2022-08-24T10:59:19.156Z,4.03
2022-08-24T11:02:21.421Z,4.47
2022-08-24T11:04:56.527Z,4.62
2022-08-24T11:07:24.002Z,5.05
2022-08-24T11:10:00.069Z,5.00
2022-08-24T11:12:36.676Z,4.37
2022-08-24T11:15:11.253Z,4.90
2022-08-24T11:18:00.279Z,5.05
2022-08-24T11:20:50.425Z,4.97
2022-08-24T11:23:31.776Z,7.07
2022-08-24T11:26:19.383Z,5.97
2022-08-24T11:28:51.195Z,5.00
2022-08-24T11:31:33.830Z,5.43
2022-08-24T11:34:10.720Z,6.10
2022-08-24T11:36:39.637Z,7.22
2022-08-24T11:39:27.977Z,8.32
2022-08-24T11:42:27.411Z,8.73
2022-08-24T11:45:00.604Z,8.60
2022-08-24T11:47:40.620Z,8.80
2022-08-24T11:50:30.061Z,8.77
2022-08-24T11:53:12.163Z,7.97
2022-08-24T11:55:57.157Z,7.70
2022-08-24T11:58:43.957Z,7.35
2022-08-24T12:01:24.806Z,8.63
2022-08-24T12:03:55.686Z,7.45
2022-08-24T12:06:45.057Z,6.15
2022-08-24T12:09:50.285Z,4.93
2022-08-24T12:12:28.421Z,6.70
2022-08-24T12:15:17.706Z,7.75
2022-08-24T12:18:10.127Z,8.32
2022-08-24T12:20:48.278Z,8.57
2022-08-24T12:23:40.815Z,10.35
2022-08-24T12:26:17.909Z,11.90
2022-08-24T12:28:54.463Z,10.77
2022-08-24T12:31:32.415Z,10.75
2022-08-24T12:34:02.766Z,11.85
2022-08-24T12:36:39.933Z,11.50
2022-08-24T12:39:21.393Z,10.63
2022-08-24T12:41:58.458Z,12.43
2022-08-24T12:44:39.465Z,12.77
2022-08-24T12:47:07.187Z,12.20
2022-08-24T12:49:45.510Z,12.30
2022-08-24T12:52:55.765Z,12.63
2022-08-24T12:55:35.807Z,12.65
2022-08-24T12:58:32.200Z,13.82
2022-08-24T13:00:59.156Z,14.95
2022-08-24T13:03:38.908Z,13.55
2022-08-24T13:06:25.874Z,15.32
2022-08-24T13:09:07.223Z,15.00
2022-08-24T13:11:35.850Z,16.17
2022-08-24T13:14:03.459Z,17.55
2022-08-24T13:17:09.348Z,17.50
2022-08-24T13:19:43.691Z,17.85
2022-08-24T13:22:11.011Z,17.52
2022-08-24T13:25:07.025Z,17.77
2022-08-24T13:27:37.352Z,17.80
2022-08-24T13:30:08.695Z,17.45
2022-08-24T13:32:44.660Z,17.50
2022-08-24T13:35:41.875Z,17.67
2022-08-24T13:38:42.304Z,17.58
2022-08-24T13:41:13.727Z,17.70
2022-08-24T13:43:54.770Z,16.55
2022-08-24T13:46:46.541Z,17.62
2022-08-24T13:49:24.764Z,17.20
2022-08-24T13:51:58.523Z,17.02
2022-08-24T13:54:43.900Z,17.80
2022-08-24T13:57:22.008Z,17.73
2022-08-24T14:00:17.458Z,17.33
2022-08-24T14:03:00.609Z,16.58
2022-08-24T14:05:41.707Z,17.98
2022-08-24T14:08:24.513Z,18.73
2022-08-24T14:11:10.444Z,17.83
2022-08-24T14:13:59.883Z,18.52
2022-08-24T14:17:19.848Z,18.08
2022-08-24T14:19:59.547Z,18.60
2022-08-24T14:23:03.850Z,19.08
2022-08-24T14:25:33.859Z,19.30
2022-08-24T14:28:01.293Z,18.35
2022-08-24T14:30:28.627Z,17.25
2022-08-24T14:32:59.713Z,18.83
2022-08-24T14:35:43.490Z,17.92
2022-08-24T14:38:14.180Z,18.67
2022-08-24T14:41:18.408Z,17.55
2022-08-24T14:44:06.943Z,19.67
2022-08-24T14:46:49.526Z,18.37
2022-08-24T14:49:34.921Z,18.98
2022-08-24T14:52:43.988Z,19.65
2022-08-24T14:55:28.054Z,19.60
2022-08-24T14:58:00.840Z,18.43
2022-08-24T15:00:48.413Z,17.90
2022-08-24T15:03:32.995Z,18.12
2022-08-24T15:06:26.784Z,18.95
2022-08-24T15:09:11.213Z,17.45
2022-08-24T15:11:41.405Z,17.62
2022-08-24T15:14:23.585Z,15.73
2022-08-24T15:16:59.721Z,14.45
2022-08-24T15:19:43.779Z,13.77
2022-08-24T15:22:29.991Z,14.10
2022-08-24T15:25:03.819Z,13.80
2022-08-24T15:27:57.057Z,13.10
2022-08-24T15:30:34.179Z,13.52
2022-08-24T15:33:10.533Z,11.68
2022-08-24T15:35:44.079Z,10.50
2022-08-24T15:38:19.260Z,10.88
2022-08-24T15:40:48.097Z,10.35
2022-08-24T15:43:16.369Z,10.55
2022-08-24T15:45:49.511Z,9.18
2022-08-24T15:48:20.868Z,8.90
2022-08-24T15:50:48.769Z,9.77
2022-08-24T15:56:36.029Z,9.32
2022-08-24T15:59:13.481Z,9.77
2022-08-24T16:01:59.351Z,9.48
2022-08-24T16:05:01.508Z,9.35
2022-08-24T16:07:59.851Z,8.90
2022-08-24T16:10:48.154Z,8.63
2022-08-24T16:13:37.631Z,9.00
2022-08-24T16:16:12.983Z,9.35
2022-08-24T16:18:58.002Z,9.70
2022-08-24T16:21:34.513Z,9.32
2022-08-24T16:24:12.031Z,8.98
2022-08-24T16:26:56.016Z,9.57
2022-08-24T16:29:43.118Z,10.07
2022-08-24T16:32:33.739Z,9.50
2022-08-24T16:35:11.611Z,10.20
2022-08-24T16:37:39.910Z,8.77
2022-08-24T16:40:08.595Z,8.98
2022-08-24T16:42:36.754Z,9.93
2022-08-24T16:45:06.320Z,10.02
2022-08-24T16:47:33.851Z,9.90
2022-08-24T16:50:01.268Z,8.40
2022-08-24T16:52:29.229Z,8.35
2022-08-24T16:54:57.610Z,7.28
2022-08-24T16:57:29.763Z,6.43
2022-08-24T16:59:57.773Z,7.03
2022-08-24T17:02:27.781Z,6.93
2022-08-24T17:04:56.219Z,6.90
2022-08-24T17:07:26.684Z,7.45
2022-08-24T17:09:54.808Z,7.82
2022-08-24T17:12:22.651Z,7.03
2022-08-24T17:14:50.440Z,8.68
2022-08-24T17:17:23.017Z,8.05
2022-08-24T17:19:53.453Z,7.93
2022-08-24T17:22:22.292Z,8.07
2022-08-24T17:24:49.881Z,7.80
2022-08-24T17:27:18.556Z,8.15
2022-08-24T17:29:46.805Z,8.00
2022-08-24T17:32:15.020Z,7.93
2022-08-24T17:34:42.835Z,8.48
2022-08-24T17:37:10.904Z,8.43
2022-08-24T17:39:38.937Z,8.23
2022-08-24T17:42:22.294Z,8.75
2022-08-24T17:44:54.944Z,8.90
2022-08-24T17:47:22.744Z,8.40
2022-08-24T17:49:50.271Z,9.00
2022-08-24T17:52:17.861Z,9.32
2022-08-24T17:54:45.882Z,8.98
2022-08-24T17:57:14.534Z,8.63
2022-08-24T17:59:42.635Z,9.55
2022-08-24T18:02:15.255Z,10.23
2022-08-24T18:04:44.076Z,10.05
2022-08-24T18:07:13.623Z,9.82
2022-08-24T18:09:48.497Z,11.43
2022-08-24T18:12:18.340Z,12.15
2022-08-24T18:14:46.003Z,10.77
2022-08-24T18:17:28.459Z,11.20
2022-08-24T18:19:58.399Z,11.27
2022-08-24T18:22:25.900Z,11.38
2022-08-24T18:24:53.439Z,11.02
2022-08-24T18:27:27.140Z,11.10
2022-08-24T18:30:02.591Z,12.35
2022-08-24T18:32:33.476Z,12.02
2022-08-24T18:35:02.801Z,11.60
2022-08-24T18:37:30.242Z,10.98
2022-08-24T18:39:58.106Z,12.37
2022-08-24T18:42:27.653Z,11.30
2022-08-24T18:44:55.198Z,11.60
2022-08-24T18:47:23.029Z,10.85
2022-08-24T18:49:50.466Z,10.85
2022-08-24T18:52:19.639Z,9.35
2022-08-24T18:54:49.469Z,9.45
2022-08-24T18:57:18.019Z,10.57
2022-08-24T18:59:46.200Z,9.80
2022-08-24T19:02:35.802Z,10.55
2022-08-24T19:05:06.711Z,11.12
2022-08-24T19:07:40.954Z,10.73
2022-08-24T19:10:10.346Z,10.77
2022-08-24T19:12:42.675Z,10.73
2022-08-24T19:15:34.524Z,10.45
2022-08-24T19:18:05.506Z,10.32
2022-08-24T19:20:34.551Z,11.40
2022-08-24T19:23:08.013Z,11.27
2022-08-24T19:25:55.061Z,11.10
2022-08-24T19:28:23.600Z,11.25
2022-08-24T19:30:55.502Z,10.25
2022-08-24T19:33:26.772Z,10.88
2022-08-24T19:35:54.825Z,11.32
2022-08-24T19:38:25.714Z,10.63
2022-08-24T19:40:56.539Z,10.25
2022-08-24T19:43:28.486Z,11.32
2022-08-24T19:46:05.700Z,10.82
2022-08-24T19:48:35.994Z,10.48
2022-08-24T19:51:05.847Z,9.45
2022-08-24T19:53:36.167Z,9.15
2022-08-24T19:56:05.634Z,9.30
2022-08-24T19:58:38.807Z,9.38
2022-08-24T20:01:13.431Z,9.95
2022-08-24T20:03:41.404Z,9.88
2022-08-24T20:06:09.578Z,10.80
2022-08-24T20:08:37.417Z,9.82
2022-08-24T20:11:06.357Z,10.20
2022-08-24T20:13:34.970Z,9.52
2022-08-24T20:16:10.629Z,10.15
2022-08-24T20:18:39.278Z,10.95
2022-08-24T20:21:08.186Z,10.82
2022-08-24T20:23:36.260Z,11.23
2022-08-24T20:26:06.334Z,10.02
2022-08-24T20:28:40.185Z,10.50
2022-08-24T20:31:08.104Z,11.80
2022-08-24T20:33:35.948Z,12.13
2022-08-24T20:36:04.130Z,11.98
2022-08-24T20:38:32.385Z,12.00
2022-08-24T20:41:01.502Z,11.15
2022-08-24T20:43:29.277Z,11.15
2022-08-24T20:45:57.093Z,11.48
2022-08-24T20:48:28.092Z,10.80
2022-08-24T20:50:55.804Z,10.70
2022-08-24T20:53:23.666Z,11.52
2022-08-24T20:55:51.467Z,11.15
2022-08-24T20:58:21.339Z,10.40
2022-08-24T21:00:49.443Z,10.73
2022-08-24T21:03:18.856Z,10.88
2022-08-24T21:05:48.664Z,10.13
2022-08-24T21:08:16.199Z,11.07
2022-08-24T21:10:44.774Z,10.13
2022-08-24T21:13:12.332Z,10.23
2022-08-24T21:15:41.546Z,10.25
2022-08-24T21:18:10.837Z,10.23
2022-08-24T21:20:39.025Z,9.75
2022-08-24T21:23:12.342Z,9.70
2022-08-24T21:25:40.048Z,10.32
2022-08-24T21:28:07.565Z,9.40
2022-08-24T21:30:35.440Z,9.88
2022-08-24T21:33:24.571Z,10.10
2022-08-24T21:35:55.025Z,9.55
2022-08-24T21:38:25.273Z,9.88
2022-08-24T21:40:53.678Z,10.43
2022-08-24T21:43:21.740Z,8.65
2022-08-24T21:45:52.796Z,9.52
2022-08-24T21:48:20.708Z,9.93
2022-08-24T21:50:48.793Z,9.93
2022-08-24T21:53:16.776Z,9.77
2022-08-24T21:55:44.615Z,9.60
2022-08-24T21:58:12.355Z,10.18
2022-08-24T22:00:39.887Z,9.43
2022-08-24T22:03:08.792Z,10.88
2022-08-24T22:05:36.495Z,10.45
2022-08-24T22:08:04.179Z,10.13
2022-08-24T22:10:32.229Z,9.80
2022-08-24T22:13:03.811Z,10.52
2022-08-24T22:15:33.269Z,9.55
2022-08-24T22:18:01.441Z,9.73
2022-08-24T22:20:28.957Z,9.45
2022-08-24T22:22:58.466Z,9.80
2022-08-24T22:25:26.114Z,9.10
2022-08-24T22:27:53.643Z,9.07
2022-08-24T22:30:21.522Z,8.85
2022-08-24T22:32:49.054Z,9.27
2022-08-24T22:35:16.627Z,9.07
2022-08-24T22:37:44.378Z,9.10
2022-08-24T22:40:12.830Z,9.88
2022-08-24T22:42:41.019Z,9.05
2022-08-24T22:45:09.958Z,9.40
2022-08-24T22:47:38.631Z,8.93
2022-08-24T22:50:07.142Z,8.10
2022-08-24T22:52:34.860Z,7.90
2022-08-24T22:55:03.113Z,7.68
2022-08-24T22:57:30.533Z,7.78
2022-08-24T22:59:58.345Z,7.85
2022-08-24T23:02:25.829Z,8.68
2022-08-24T23:04:53.808Z,8.63
2022-08-24T23:07:21.553Z,8.43
2022-08-24T23:09:49.286Z,8.32
2022-08-24T23:12:20.678Z,8.75
2022-08-24T23:14:50.486Z,8.05
2022-08-24T23:17:18.987Z,8.57
2022-08-24T23:20:02.027Z,7.80
2022-08-24T23:22:35.006Z,7.72
2022-08-24T23:25:03.077Z,8.07
2022-08-24T23:27:32.638Z,7.65
2022-08-24T23:30:08.505Z,8.57
2022-08-24T23:32:36.260Z,7.57
2022-08-24T23:35:04.694Z,7.65
2022-08-24T23:37:32.258Z,7.80
2022-08-24T23:40:00.062Z,8.13
2022-08-24T23:42:27.522Z,7.80
2022-08-24T23:44:55.508Z,7.95
2022-08-24T23:47:23.274Z,8.57
2022-08-24T23:49:51.124Z,8.32
2022-08-24T23:52:26.412Z,8.80
2022-08-24T23:55:11.572Z,9.20
2022-08-24T23:57:45.170Z,8.40
